createdAt,value
2022-09-20T00:02:17.154Z,99905.62
2022-09-20T00:04:49.852Z,99909.20
2022-09-20T00:07:20.257Z,99910.27
2022-09-20T00:09:50.939Z,99903.63
2022-09-20T00:12:20.278Z,99900.34
2022-09-20T00:14:52.046Z,99897.39
2022-09-20T00:17:22.993Z,99894.33
2022-09-20T00:19:52.602Z,99896.02
2022-09-20T00:22:21.844Z,99895.17
2022-09-20T00:24:51.450Z,99902.34
2022-09-20T00:27:21.765Z,99902.87
2022-09-20T00:29:53.225Z,99898.34
2022-09-20T00:32:22.710Z,99897.20
2022-09-20T00:35:11.797Z,99892.45
2022-09-20T00:37:43.688Z,99891.73
2022-09-20T00:40:21.685Z,99891.01
2022-09-20T00:42:51.485Z,99891.66
2022-09-20T00:45:28.612Z,99892.30
2022-09-20T00:48:07.984Z,99894.73
2022-09-20T00:50:45.485Z,99890.30
2022-09-20T00:53:26.607Z,99894.31
2022-09-20T00:56:08.997Z,99897.17
2022-09-20T00:58:42.379Z,99897.70
2022-09-20T01:01:11.806Z,99898.45
2022-09-20T01:03:42.192Z,99899.19
2022-09-20T01:06:13.801Z,99893.19
2022-09-20T01:08:45.621Z,99895.73
2022-09-20T01:11:14.828Z,99897.84
2022-09-20T01:13:45.113Z,99892.75
2022-09-20T01:16:15.569Z,99893.06
2022-09-20T01:18:47.356Z,99895.81
2022-09-20T01:21:17.557Z,99893.59
2022-09-20T01:24:09.371Z,99896.77
2022-09-20T01:26:59.700Z,99900.45
2022-09-20T01:29:49.550Z,99897.41
2022-09-20T01:32:22.859Z,99899.20
2022-09-20T01:34:55.298Z,99893.09
2022-09-20T01:37:34.574Z,99894.46
2022-09-20T01:40:47.105Z,99901.00
2022-09-20T01:43:28.429Z,99896.25
2022-09-20T01:45:59.006Z,99898.16
2022-09-20T01:48:33.832Z,99893.63
2022-09-20T01:51:42.576Z,99890.56
2022-09-20T01:54:27.493Z,99897.20
2022-09-20T01:57:27.455Z,99892.67
2022-09-20T02:00:18.621Z,99892.89
2022-09-20T02:03:09.239Z,99894.57
2022-09-20T02:06:20.495Z,99888.03
2022-09-20T02:09:08.031Z,99888.77
2022-09-20T02:11:56.485Z,99884.45
2022-09-20T02:14:39.412Z,99887.20
2022-09-20T02:17:34.773Z,99891.73
2022-09-20T02:20:15.164Z,99886.98
2022-09-20T02:23:06.109Z,99894.78
2022-09-20T02:26:05.305Z,99901.53
2022-09-20T02:29:13.028Z,99897.73
2022-09-20T02:32:03.137Z,99893.31
2022-09-20T02:34:53.523Z,99892.67
2022-09-20T02:38:03.801Z,99896.68
2022-09-20T02:40:43.971Z,99890.25
2022-09-20T02:43:53.743Z,99893.41
2022-09-20T02:46:52.049Z,99887.62
2022-09-20T02:49:49.658Z,99892.67
2022-09-20T02:53:02.521Z,99892.67
2022-09-20T02:56:03.142Z,99897.62
2022-09-20T02:58:56.104Z,99885.08
2022-09-20T03:02:04.775Z,99892.09
2022-09-20T03:04:57.976Z,99888.83
2022-09-20T03:07:45.383Z,99885.97
2022-09-20T03:10:35.402Z,99891.30
2022-09-20T03:13:48.665Z,99891.77
2022-09-20T03:16:42.881Z,99889.56
2022-09-20T03:19:17.681Z,99890.41
2022-09-20T03:22:26.140Z,99898.21
2022-09-20T03:25:37.481Z,99896.11
2022-09-20T03:28:46.737Z,99903.09
2022-09-20T03:31:24.791Z,99907.10
2022-09-20T03:34:07.815Z,99911.20
2022-09-20T03:36:55.663Z,99911.53
2022-09-20T03:39:54.091Z,99910.05
2022-09-20T03:42:29.067Z,99917.42
2022-09-20T03:45:35.275Z,99921.00
2022-09-20T03:48:33.123Z,99921.11
2022-09-20T03:51:33.098Z,99925.02
2022-09-20T03:54:38.102Z,99928.80
2022-09-20T03:57:37.726Z,99928.38
2022-09-20T04:00:34.247Z,99927.74
2022-09-20T04:03:35.553Z,99925.91
2022-09-20T04:06:49.125Z,99925.21
2022-09-20T04:09:53.681Z,99927.95
2022-09-20T04:13:11.610Z,99924.48
2022-09-20T04:16:13.193Z,99924.27
2022-09-20T04:18:49.880Z,99935.33
2022-09-20T04:22:01.315Z,99921.54
2022-09-20T04:24:56.334Z,99921.44
2022-09-20T04:27:40.086Z,99920.70
2022-09-20T04:30:18.411Z,99925.13
2022-09-20T04:33:04.543Z,99928.19
2022-09-20T04:36:31.133Z,99925.45
2022-09-20T04:39:24.097Z,99928.30
2022-09-20T04:42:38.883Z,99933.04
2022-09-20T04:45:34.717Z,99935.36
2022-09-20T04:48:37.992Z,99934.63
2022-09-20T04:51:48.048Z,99939.47
2022-09-20T04:54:45.736Z,99936.62
2022-09-20T04:57:38.245Z,99943.92
2022-09-20T05:00:20.353Z,99942.86
2022-09-20T05:03:20.822Z,99944.00
2022-09-20T05:06:27.295Z,99947.05
2022-09-20T05:09:16.579Z,99948.63
2022-09-20T05:12:30.790Z,99953.04
2022-09-20T05:15:08.259Z,99942.48
2022-09-20T05:17:57.251Z,99941.31
2022-09-20T05:20:45.508Z,99938.23
2022-09-20T05:23:54.325Z,99938.11
2022-09-20T05:26:55.857Z,99942.64
2022-09-20T05:30:05.151Z,99938.94
2022-09-20T05:32:58.613Z,99931.98
2022-09-20T05:35:36.298Z,99928.28
2022-09-20T05:38:47.047Z,99929.03
2022-09-20T05:41:42.233Z,99927.22
2022-09-20T05:45:00.354Z,99932.28
2022-09-20T05:47:59.799Z,99930.78
2022-09-20T05:50:43.945Z,99928.44
2022-09-20T05:53:45.893Z,99929.28
2022-09-20T05:56:52.725Z,99930.53
2022-09-20T05:59:31.243Z,99936.43
2022-09-20T06:02:27.491Z,99935.06
2022-09-20T06:05:35.387Z,99935.80
2022-09-20T06:08:23.299Z,99932.09
2022-09-20T06:11:27.051Z,99937.23
2022-09-20T06:14:17.199Z,99932.37
2022-09-20T06:17:01.032Z,99930.56
2022-09-20T06:20:06.000Z,99935.95
2022-09-20T06:22:47.194Z,99933.34
2022-09-20T06:25:30.954Z,99938.39
2022-09-20T06:28:06.709Z,99939.02
2022-09-20T06:30:41.509Z,99928.97
2022-09-20T06:33:18.007Z,99931.18
2022-09-20T06:36:40.495Z,99934.23
2022-09-20T06:40:09.216Z,99930.96
2022-09-20T06:42:39.928Z,99932.33
2022-09-20T06:45:09.374Z,99929.15
2022-09-20T06:47:40.875Z,99929.15
2022-09-20T06:50:16.339Z,99931.45
2022-09-20T06:52:48.157Z,99932.39
2022-09-20T06:55:26.076Z,99931.64
2022-09-20T06:57:55.633Z,99930.57
2022-09-20T07:00:25.740Z,99931.73
2022-09-20T07:02:56.758Z,99920.95
2022-09-20T07:05:26.457Z,99928.98
2022-09-20T07:07:59.905Z,99921.05
2022-09-20T07:10:31.078Z,99922.20
2022-09-20T07:13:01.630Z,99921.36
2022-09-20T07:15:32.952Z,99919.67
2022-09-20T07:18:03.150Z,99914.30
2022-09-20T07:20:34.007Z,99921.88
2022-09-20T07:23:03.582Z,99920.81
2022-09-20T07:25:34.186Z,99922.28
2022-09-20T07:28:04.323Z,99928.39
2022-09-20T07:30:34.755Z,99921.22
2022-09-20T07:33:05.414Z,99927.86
2022-09-20T07:35:35.645Z,99936.51
2022-09-20T07:38:05.776Z,99933.09
2022-09-20T07:41:49.694Z,99931.63
2022-09-20T07:44:55.746Z,99931.77
2022-09-20T07:47:26.538Z,99932.38
2022-09-20T07:49:55.877Z,99925.78
2022-09-20T07:52:26.259Z,99932.16
2022-09-20T07:54:56.040Z,99932.80
2022-09-20T07:57:25.125Z,99934.66
2022-09-20T07:59:54.798Z,99931.55
2022-09-20T08:02:24.642Z,99930.73
2022-09-20T08:04:54.308Z,99938.65
2022-09-20T08:07:24.217Z,99943.16
2022-09-20T08:09:54.347Z,99936.06
2022-09-20T08:14:56.917Z,99938.67
2022-09-20T08:17:26.768Z,99934.02
2022-09-20T08:19:56.563Z,99932.52
2022-09-20T08:22:25.926Z,99932.91
2022-09-20T08:24:56.353Z,99937.42
2022-09-20T08:27:25.800Z,99940.03
2022-09-20T08:29:57.347Z,99942.09
2022-09-20T08:32:26.938Z,99938.75
2022-09-20T08:34:56.342Z,99946.39
2022-09-20T08:37:27.379Z,99936.68
2022-09-20T08:39:58.163Z,99941.25
2022-09-20T08:42:36.642Z,99935.22
2022-09-20T08:45:07.037Z,99935.67
2022-09-20T08:47:39.812Z,99926.91
2022-09-20T08:50:11.614Z,99925.23
2022-09-20T08:52:42.553Z,99934.97
2022-09-20T08:55:22.797Z,99933.99
2022-09-20T08:57:55.859Z,99926.66
2022-09-20T09:00:35.512Z,99927.89
2022-09-20T09:03:13.564Z,99933.25
2022-09-20T09:05:51.738Z,99925.64
2022-09-20T09:08:27.272Z,99929.77
2022-09-20T09:10:59.122Z,99924.58
2022-09-20T09:14:02.963Z,99927.18
2022-09-20T09:16:35.599Z,99924.59
2022-09-20T09:19:34.623Z,99921.23
2022-09-20T09:22:04.849Z,99925.52
2022-09-20T09:24:34.052Z,99922.01
2022-09-20T09:27:19.153Z,99922.93
2022-09-20T09:29:54.646Z,99920.33
2022-09-20T09:32:31.269Z,99927.36
2022-09-20T09:35:25.280Z,99921.48
2022-09-20T09:37:59.999Z,99927.44
2022-09-20T09:40:31.563Z,99922.15
2022-09-20T09:43:02.659Z,99920.92
2022-09-20T09:45:37.321Z,99926.42
2022-09-20T09:48:28.403Z,99921.77
2022-09-20T09:51:17.950Z,99918.31
2022-09-20T09:53:50.136Z,99915.71
2022-09-20T09:56:47.078Z,99910.63
2022-09-20T09:59:39.137Z,99914.53
2022-09-20T10:02:29.747Z,99914.33
2022-09-20T10:05:14.544Z,99907.23
2022-09-20T10:08:15.389Z,99908.84
2022-09-20T10:11:12.948Z,99904.58
2022-09-20T10:13:53.897Z,99902.89
2022-09-20T10:16:55.963Z,99906.27
2022-09-20T10:20:10.790Z,99897.24
2022-09-20T10:23:21.427Z,99904.42
2022-09-20T10:25:43.814Z,99892.66
2022-09-20T10:28:47.416Z,99896.31
2022-09-20T10:31:43.305Z,99896.61
2022-09-20T10:34:51.266Z,99896.72
2022-09-20T10:37:42.588Z,99895.94
2022-09-20T10:40:24.402Z,99887.64
2022-09-20T10:43:15.221Z,99888.77
2022-09-20T10:46:31.271Z,99886.91
2022-09-20T10:48:51.741Z,99878.13
2022-09-20T10:51:39.226Z,99877.91
2022-09-20T10:54:38.260Z,99878.75
2022-09-20T10:57:48.170Z,99875.69
2022-09-20T11:00:36.311Z,99870.42
2022-09-20T11:03:33.495Z,99871.09
2022-09-20T11:06:42.926Z,99858.95
2022-09-20T11:09:16.615Z,99856.20
2022-09-20T11:11:58.284Z,99858.19
2022-09-20T11:14:36.263Z,99857.66
2022-09-20T11:17:16.466Z,99857.66
2022-09-20T11:20:07.680Z,99858.41
2022-09-20T11:23:02.380Z,99854.05
2022-09-20T11:25:46.225Z,99854.94
2022-09-20T11:28:24.666Z,99861.05
2022-09-20T11:31:14.605Z,99860.21
2022-09-20T11:33:58.861Z,99859.82
2022-09-20T11:36:40.072Z,99870.50
2022-09-20T11:39:20.262Z,99863.94
2022-09-20T11:41:51.051Z,99861.81
2022-09-20T11:44:21.607Z,99861.59
2022-09-20T11:46:58.668Z,99861.81
2022-09-20T11:49:47.993Z,99868.15
2022-09-20T11:52:42.200Z,99862.57
2022-09-20T11:55:58.857Z,99853.79
2022-09-20T11:58:28.631Z,99853.48
2022-09-20T12:00:58.599Z,99848.61
2022-09-20T12:03:39.980Z,99845.41
2022-09-20T12:06:23.572Z,99848.32
2022-09-20T12:08:54.115Z,99851.69
2022-09-20T12:11:33.978Z,99852.30
2022-09-20T12:14:19.410Z,99855.58
2022-09-20T12:16:49.757Z,99848.41
2022-09-20T12:19:36.733Z,99850.84
2022-09-20T12:22:11.264Z,99845.66
2022-09-20T12:24:45.514Z,99847.09
2022-09-20T12:27:32.437Z,99848.91
2022-09-20T12:30:21.778Z,99849.44
2022-09-20T12:32:58.837Z,99851.13
2022-09-20T12:36:00.190Z,99843.41
2022-09-20T12:38:31.621Z,99833.04
2022-09-20T12:41:02.859Z,99838.92
2022-09-20T12:43:33.011Z,99830.23
2022-09-20T12:46:07.475Z,99840.55
2022-09-20T12:48:37.550Z,99837.34
2022-09-20T12:51:45.458Z,99837.66
2022-09-20T12:54:14.602Z,99839.03
2022-09-20T12:56:45.941Z,99831.55
2022-09-20T12:59:27.248Z,99841.08
2022-09-20T13:01:56.740Z,99830.31
2022-09-20T13:04:55.351Z,99820.92
2022-09-20T13:07:43.990Z,99819.55
2022-09-20T13:10:24.431Z,99812.59
2022-09-20T13:12:59.600Z,99813.96
2022-09-20T13:15:29.983Z,99811.44
2022-09-20T13:18:01.302Z,99807.02
2022-09-20T13:20:33.705Z,99801.82
2022-09-20T13:23:04.223Z,99812.90
2022-09-20T13:25:34.836Z,99802.74
2022-09-20T13:28:21.433Z,99801.14
2022-09-20T13:30:52.443Z,99812.98
2022-09-20T13:33:26.203Z,99808.24
2022-09-20T13:35:58.453Z,99813.73
2022-09-20T13:38:30.503Z,99810.77
2022-09-20T13:41:12.785Z,99802.59
2022-09-20T13:43:49.193Z,99805.42
2022-09-20T13:46:24.369Z,99801.84
2022-09-20T13:49:14.033Z,99802.06
2022-09-20T13:51:44.382Z,99797.33
2022-09-20T13:54:31.087Z,99799.99
2022-09-20T13:57:03.060Z,99816.26
2022-09-20T13:59:36.210Z,99814.05
2022-09-20T14:02:05.657Z,99806.87
2022-09-20T14:04:37.059Z,99812.59
2022-09-20T14:07:08.091Z,99806.17
2022-09-20T14:09:39.859Z,99804.57
2022-09-20T14:12:11.238Z,99803.73
2022-09-20T14:14:40.036Z,99797.61
2022-09-20T14:17:13.315Z,99793.19
2022-09-20T14:19:44.727Z,99788.76
2022-09-20T14:22:20.648Z,99784.63
2022-09-20T14:25:16.008Z,99784.10
2022-09-20T14:27:46.916Z,99779.67
2022-09-20T14:30:35.965Z,99781.35
2022-09-20T14:33:06.880Z,99787.61
2022-09-20T14:35:38.243Z,99783.41
2022-09-20T14:38:08.545Z,99780.66
2022-09-20T14:40:45.851Z,99787.83
2022-09-20T14:43:21.071Z,99785.09
2022-09-20T14:46:03.841Z,99779.89
2022-09-20T14:48:37.117Z,99780.97
2022-09-20T14:51:22.949Z,99786.07
2022-09-20T14:53:56.077Z,99796.30
2022-09-20T14:56:37.414Z,99795.02
2022-09-20T14:59:24.416Z,99790.36
2022-09-20T15:02:01.233Z,99786.46
2022-09-20T15:04:32.318Z,99795.77
2022-09-20T15:07:07.897Z,99796.75
2022-09-20T15:09:38.713Z,99800.18
2022-09-20T15:12:15.274Z,99799.56
2022-09-20T15:14:44.692Z,99788.57
2022-09-20T15:17:18.965Z,99789.33
2022-09-20T15:19:49.187Z,99793.14
2022-09-20T15:22:18.288Z,99781.53
2022-09-20T15:24:48.373Z,99798.02
2022-09-20T15:27:17.907Z,99793.06
2022-09-20T15:29:48.003Z,99798.02
2022-09-20T15:32:17.480Z,99802.28
2022-09-20T15:34:48.443Z,99810.83
2022-09-20T15:37:18.563Z,99811.14
2022-09-20T15:39:48.230Z,99801.52
2022-09-20T15:42:19.143Z,99806.48
2022-09-20T15:44:51.727Z,99804.27
2022-09-20T15:47:24.308Z,99803.97
2022-09-20T15:49:55.409Z,99796.79
2022-09-20T15:52:25.798Z,99802.28
2022-09-20T15:54:57.713Z,99804.72
2022-09-20T15:57:28.643Z,99808.31
2022-09-20T15:59:59.400Z,99808.84
2022-09-20T16:02:30.830Z,99812.31
2022-09-20T16:05:02.171Z,99819.32
2022-09-20T16:07:32.742Z,99813.80
2022-09-20T16:10:03.504Z,99828.50
2022-09-20T16:12:35.135Z,99830.09
2022-09-20T16:15:06.340Z,99830.41
2022-09-20T16:17:55.221Z,99829.03
2022-09-20T16:20:25.927Z,99826.91
2022-09-20T16:22:55.151Z,99827.13
2022-09-20T16:25:24.448Z,99830.72
2022-09-20T16:27:55.202Z,99823.01
2022-09-20T16:30:25.363Z,99822.92
2022-09-20T16:32:54.886Z,99818.72
2022-09-20T16:35:25.519Z,99807.11
2022-09-20T16:37:57.434Z,99814.28
2022-09-20T16:40:27.941Z,99814.06
2022-09-20T16:42:58.536Z,99809.10
2022-09-20T16:45:29.490Z,99802.15
2022-09-20T16:47:59.388Z,99803.22
2022-09-20T16:50:29.393Z,99796.26
2022-09-20T16:52:58.471Z,99800.16
2022-09-20T16:55:28.834Z,99790.63
2022-09-20T16:57:58.306Z,99789.48
2022-09-20T17:00:28.228Z,99792.45
2022-09-20T17:02:58.594Z,99786.42
2022-09-20T17:05:27.582Z,99786.42
2022-09-20T17:07:58.047Z,99786.65
2022-09-20T17:10:30.104Z,99780.32
2022-09-20T17:13:02.722Z,99787.09
2022-09-20T17:15:33.477Z,99786.78
2022-09-20T17:18:05.733Z,99788.91
2022-09-20T17:20:35.264Z,99793.88
2022-09-20T17:23:07.981Z,99791.57
2022-09-20T17:25:38.056Z,99795.07
2022-09-20T17:28:09.457Z,99792.86
2022-09-20T17:30:38.786Z,99797.06
2022-09-20T17:33:09.441Z,99790.64
2022-09-20T17:35:39.893Z,99791.00
2022-09-20T17:38:10.596Z,99797.77
2022-09-20T17:40:41.034Z,99798.44
2022-09-20T17:43:11.329Z,99794.84
2022-09-20T17:45:41.265Z,99801.31
2022-09-20T17:48:11.067Z,99794.55
2022-09-20T17:50:40.189Z,99797.20
2022-09-20T17:53:09.134Z,99799.20
2022-09-20T17:55:38.989Z,99799.11
2022-09-20T17:58:08.681Z,99803.22
2022-09-20T18:00:38.972Z,99809.45
2022-09-20T18:03:09.319Z,99817.37
2022-09-20T18:05:38.666Z,99817.37
2022-09-20T18:08:08.292Z,99821.19
2022-09-20T18:10:38.693Z,99823.62
2022-09-20T18:13:09.575Z,99824.27
2022-09-20T18:15:38.744Z,99823.24
2022-09-20T18:18:09.791Z,99827.27
2022-09-20T18:20:41.262Z,99834.34
2022-09-20T18:23:10.628Z,99830.97
2022-09-20T18:25:59.330Z,99838.14
2022-09-20T18:28:31.107Z,99836.55
2022-09-20T18:31:02.675Z,99838.02
2022-09-20T18:33:34.308Z,99844.25
2022-09-20T18:36:05.090Z,99837.08
2022-09-20T18:38:35.059Z,99830.66
2022-09-20T18:41:05.644Z,99832.03
2022-09-20T18:43:36.549Z,99838.98
2022-09-20T18:46:06.301Z,99838.23
2022-09-20T18:48:39.147Z,99844.25
2022-09-20T18:51:09.842Z,99846.16
2022-09-20T18:53:39.917Z,99839.08
2022-09-20T18:56:15.043Z,99842.35
2022-09-20T18:58:45.812Z,99838.14
2022-09-20T19:01:41.268Z,99829.28
2022-09-20T19:05:10.291Z,99834.77
2022-09-20T19:08:07.929Z,99831.72
2022-09-20T19:10:56.611Z,99829.60
2022-09-20T19:13:46.739Z,99821.90
2022-09-20T19:16:31.964Z,99820.22
2022-09-20T19:19:18.915Z,99820.00
2022-09-20T19:21:58.676Z,99820.63
2022-09-20T19:24:59.043Z,99822.31
2022-09-20T19:27:28.965Z,99820.63
2022-09-20T19:29:58.724Z,99827.80
2022-09-20T19:32:29.652Z,99830.23
2022-09-20T19:35:01.453Z,99824.73
2022-09-20T19:37:38.907Z,99826.95
2022-09-20T19:40:38.962Z,99823.98
2022-09-20T19:43:35.595Z,99820.09
2022-09-20T19:46:35.826Z,99824.20
2022-09-20T19:49:27.082Z,99813.77
2022-09-20T19:51:57.761Z,99810.40
2022-09-20T19:54:30.097Z,99807.16
2022-09-20T19:56:59.797Z,99814.32
2022-09-20T19:59:31.186Z,99816.32
2022-09-20T20:02:02.022Z,99830.34
2022-09-20T20:04:33.250Z,99834.46
2022-09-20T20:07:11.442Z,99837.83
2022-09-20T20:10:18.975Z,99828.98
2022-09-20T20:13:03.702Z,99837.11
2022-09-20T20:15:52.415Z,99833.95
2022-09-20T20:18:44.946Z,99831.65
2022-09-20T20:21:20.356Z,99829.34
2022-09-20T20:24:18.081Z,99832.30
2022-09-20T20:26:47.751Z,99833.47
2022-09-20T20:29:18.185Z,99833.59
2022-09-20T20:31:47.998Z,99833.59
2022-09-20T20:34:18.085Z,99835.18
2022-09-20T20:36:49.232Z,99832.34
2022-09-20T20:39:20.124Z,99835.52
2022-09-20T20:41:51.724Z,99828.45
2022-09-20T20:44:22.411Z,99838.58
2022-09-20T20:46:53.694Z,99840.35
2022-09-20T20:49:24.470Z,99849.73
2022-09-20T20:51:56.061Z,99848.49
2022-09-20T20:54:25.929Z,99847.65
2022-09-20T20:56:56.250Z,99850.69
2022-09-20T20:59:25.360Z,99853.23
2022-09-20T21:01:56.310Z,99853.45
2022-09-20T21:04:27.300Z,99851.14
2022-09-20T21:06:59.289Z,99854.94
2022-09-20T21:09:29.605Z,99843.34
2022-09-20T21:11:59.261Z,99848.51
2022-09-20T21:14:31.770Z,99840.09
2022-09-20T21:17:02.317Z,99834.20
2022-09-20T21:19:32.854Z,99823.55
2022-09-20T21:22:02.058Z,99823.98
2022-09-20T21:24:31.311Z,99822.72
2022-09-20T21:27:01.819Z,99816.61
2022-09-20T21:29:31.509Z,99819.88
2022-09-20T21:32:02.079Z,99817.45
2022-09-20T21:34:32.543Z,99813.88
2022-09-20T21:37:02.552Z,99819.77
2022-09-20T21:39:32.435Z,99814.61
2022-09-20T21:42:03.962Z,99809.13
2022-09-20T21:44:33.367Z,99800.06
2022-09-20T21:47:02.499Z,99808.81
2022-09-20T21:49:32.521Z,99804.08
2022-09-20T21:52:02.620Z,99801.44
2022-09-20T21:54:33.171Z,99796.80
2022-09-20T21:57:03.306Z,99795.43
2022-09-20T21:59:34.532Z,99798.17
2022-09-20T22:02:05.038Z,99792.69
2022-09-20T22:04:35.838Z,99791.11
2022-09-20T22:07:06.080Z,99794.16
2022-09-20T22:09:36.259Z,99794.48
2022-09-20T22:12:05.680Z,99790.38
2022-09-20T22:14:37.038Z,99790.47
2022-09-20T22:17:06.946Z,99792.69
2022-09-20T22:19:37.753Z,99798.48
2022-09-20T22:22:09.056Z,99791.84
2022-09-20T22:24:40.141Z,99789.84
2022-09-20T22:27:10.583Z,99790.78
2022-09-20T22:29:40.429Z,99789.52
2022-09-20T22:32:10.169Z,99790.36
2022-09-20T22:34:40.683Z,99798.27
2022-09-20T22:37:11.889Z,99794.47
2022-09-20T22:39:41.409Z,99794.26
2022-09-20T22:42:12.323Z,99796.05
2022-09-20T22:44:42.110Z,99804.05
2022-09-20T22:47:12.272Z,99799.72
2022-09-20T22:49:42.831Z,99803.20
2022-09-20T22:52:12.316Z,99805.09
2022-09-20T22:54:44.629Z,99805.94
2022-09-20T22:57:14.563Z,99805.72
2022-09-20T22:59:45.507Z,99809.20
2022-09-20T23:02:14.829Z,99812.26
2022-09-20T23:04:44.479Z,99803.30
2022-09-20T23:07:14.111Z,99803.30
2022-09-20T23:09:45.822Z,99808.25
2022-09-20T23:12:16.856Z,99801.71
2022-09-20T23:14:47.843Z,99806.34
2022-09-20T23:17:18.563Z,99807.19
2022-09-20T23:19:49.590Z,99804.66
2022-09-20T23:22:19.199Z,99802.66
2022-09-20T23:24:49.709Z,99804.56
2022-09-20T23:27:19.378Z,99798.77
2022-09-20T23:29:49.349Z,99801.92
2022-09-20T23:32:19.951Z,99800.02
2022-09-20T23:34:50.826Z,99803.39
2022-09-20T23:37:20.635Z,99795.70
2022-09-20T23:39:50.286Z,99797.70
2022-09-20T23:42:19.199Z,99790.11
2022-09-20T23:44:49.326Z,99786.63
2022-09-20T23:47:19.114Z,99780.20
2022-09-20T23:49:47.914Z,99783.05
2022-09-20T23:52:18.607Z,99786.85
2022-09-20T23:54:49.012Z,99788.53
2022-09-20T23:57:19.295Z,99794.55
2022-09-20T23:59:49.226Z,99786.01
